Orlando, FL (32801)

11:55 AM EST on December 10, 2016 (GMT -0500)
WFTV, Channel 9 | | Change Station

Elev 92 ft 28.54 °N, 81.37 °W | Updated 3 seconds ago

Clear
Clear
67.6 °F
Feels Like 67.6 °F
N
3.7
Wind Variable Wind from NNE
Gusts 11.0 mph

Today
High -- | Low -- °F
--% Chance of Precip.
Yesterday
High -- | Low -- °F
Precip. -- in
Pressure 30.38 in
Visibility 10.0 miles
Clouds Clear
Dew Point 52 °F
Humidity 58%
Rainfall 0.00 in
Snow Depth Not available.
7:07 AM 5:29 PM
Waxing Gibbous, 85% visible
METAR KORL 101553Z 01010KT 10SM CLR 19/11 A3037 RMK AO2 SLP288 T01890111
Pressure 30.38 in
Visibility 10.0 miles
Clouds Clear
Dew Point 52 °F
Humidity 58%
Rainfall 0.00 in
Snow Depth Not available.
7:07 AM 5:29 PM
Waxing Gibbous, 85% visible
METAR KORL 101553Z 01010KT 10SM CLR 19/11 A3037 RMK AO2 SLP288 T01890111

10-Day Weather Forecast

Almanac

Astronomy

Dec. 10, 2016 Rise Set
Actual Time
Civil Twilight
Nautical Twilight
Astronomical Twilight
Moon
Length of Visible Light
Length of Day
Tomorrow will be .
, % of the Moon is Illuminated

Today's Extremes

State Highs State Lows

Community

WunderPhotos

Upload Photos

1,956,569 photos uploaded!

WunderBlog® & News

Nearby

Air Quality

  Air Quality AQ Index Pollutant
Not available.

Snow Depth

Station Depth Elevation

Earthquake Activity

City Distance Mag. Time & Date
Minimum magnitude displayed is 2.5.

Coastal Water Temperatures

Place Temperature

Stations

Nearby Weather Stations

Station Location Temp. Windchill Dew Point Humidity Wind Precip. Elev Updated Type
                   

Watches & Warnings

There are currently no watches in effect.